Home   Weather   USA   Newport   Past weeks
Flag for USA

Past Weather in Newport, Oregon, USA — Yesterday and Last 2 Weeks

Currently: 48 °F. Cool. (Weather station: Newport - MADIS Station, USA). See more current weather

Past Weather in Newport — Graph

°F

Newport Temperature Yesterday

Maximum temperature yesterday: 60 °F (at 3:17 pm)
Minimum temperature yesterday: 47 °F (at 5:49 am)
Average temperature yesterday: 53 °F

High & Low Weather Summary for the Past Weeks

 TemperatureHumidityPressure
High60 °F (May 4, 2:47 pm)100% (May 6, 3:58 am)30.21 "Hg (May 6, 3:58 am)
Low40 °F (May 8, 5:46 am)65% (May 10, 2:49 pm)29.60 "Hg (May 6, 5:16 pm)
Average50 °F90%29.95 "Hg
* Reported May 4 4:17 am — May 19 4:00 am, Newport. Weather by CustomWeather, © 2022

Note: Actual official high and low records may vary slightly from our data, if they occured in-between our weather recording intervals... More about our weather records

Newport Weather History for the Previous 24 Hours

Scroll right to see more
 ConditionsComfort  
Time TempWeatherWind HumidityBarometerVisibility
4:00 am
Thu, May 19
48 °FCool.5 mph87%30.14 "HgN/A
3:55 am48 °FCool.2 mph87%30.15 "HgN/A
3:29 am49 °FCool.2 mph91%30.14 "HgN/A
3:09 am48 °FCool.2 mph91%30.14 "HgN/A
1:57 am50 °FCool.No wind90%30.13 "HgN/A
1:06 am50 °FCool.3 mph88%30.13 "HgN/A
12:15 am50 °FCool.No wind87%30.14 "HgN/A
11:03 pm
Wed, May 18
51 °FCool.1 mph85%30.13 "HgN/A
10:17 pm51 °FCool.No wind86%30.14 "HgN/A
10:07 pm51 °FCool.No wind86%30.14 "HgN/A
9:26 pm51 °FCool.No wind84%30.13 "HgN/A
8:45 pm52 °FCool.No wind81%30.14 "HgN/A
8:09 pm53 °FCool.2 mph80%30.14 "HgN/A
7:28 pm55 °FCool.2 mph78%30.14 "HgN/A
7:18 pm55 °FCool.1 mph78%30.14 "HgN/A
6:06 pm58 °FCool.1 mph76%30.15 "HgN/A
5:46 pm59 °FCool.4 mph73%30.14 "HgN/A
5:20 pm59 °FCool.5 mph73%30.14 "HgN/A
4:44 pm60 °FCool.4 mph75%30.15 "HgN/A
4:29 pm59 °FCool.6 mph76%30.15 "HgN/A
4:19 pm59 °FCool.3 mph77%30.15 "HgN/A
3:28 pm60 °FCool.3 mph75%30.16 "HgN/A
3:17 pm60 °FCool.2 mph76%30.15 "HgN/A
2:16 pm59 °FCool.6 mph76%30.15 "HgN/A
1:35 pm58 °FCool.6 mph80%30.14 "HgN/A
1:10 pm58 °FCool.7 mph83%30.13 "HgN/A
12:29 pm56 °FCool.6 mph91%30.12 "HgN/A
12:13 pm54 °FCool.8 mph95%30.12 "HgN/A
11:17 am54 °FCool.5 mph100%30.10 "HgN/A
10:26 am50 °FCool.9 mph100%30.08 "HgN/A
10:16 am50 °FCool.12 mph100%30.08 "HgN/A
9:29 am49 °FCool.13 mph99%30.08 "HgN/A
9:09 am49 °FCool.14 mph99%30.07 "HgN/A
8:28 am48 °FCool.17 mph97%30.06 "HgN/A
8:08 am48 °FCool.15 mph95%30.06 "HgN/A
7:27 am49 °FCool.17 mph91%30.04 "HgN/A
7:16 am49 °FCool.12 mph91%30.04 "HgN/A
5:49 am47 °FCool.4 mph90%30.04 "HgN/A
5:29 am48 °FCool.8 mph88%30.03 "HgN/A
5:09 am48 °FCool.7 mph87%30.04 "HgN/A
Weather by CustomWeather, © 2022

See weather overview